createdAt,value
2019-04-16T00:04:56.710Z,20.95
2019-04-16T00:11:25.647Z,22.73
2019-04-16T00:17:30.278Z,27.80
2019-04-16T00:24:02.568Z,24.40
2019-04-16T00:30:08.612Z,23.45
2019-04-16T00:36:15.399Z,21.87
2019-04-16T00:42:18.943Z,22.40
2019-04-16T00:48:23.697Z,22.37
2019-04-16T00:54:28.083Z,22.75
2019-04-16T01:00:32.454Z,24.15
2019-04-16T01:06:37.974Z,24.07
2019-04-16T01:12:42.830Z,25.02
2019-04-16T01:18:47.224Z,24.87
2019-04-16T01:24:52.629Z,25.20
2019-04-16T01:31:10.358Z,24.30
2019-04-16T01:37:45.424Z,23.70
2019-04-16T01:43:49.747Z,24.92
2019-04-16T01:49:54.110Z,25.32
2019-04-16T01:55:58.611Z,24.10
2019-04-16T02:02:02.893Z,24.65
2019-04-16T02:08:07.293Z,24.55
2019-04-16T02:14:11.530Z,24.07
2019-04-16T02:20:15.824Z,24.90
2019-04-16T02:26:20.534Z,25.57
2019-04-16T02:32:26.029Z,24.87
2019-04-16T02:38:30.331Z,22.90
2019-04-16T02:44:37.820Z,24.65
2019-04-16T02:50:47.473Z,24.52
2019-04-16T02:57:09.624Z,24.72
2019-04-16T03:03:18.951Z,25.15
2019-04-16T03:09:23.270Z,25.23
2019-04-16T03:15:45.197Z,25.27
2019-04-16T03:21:49.472Z,25.70
2019-04-16T03:27:54.484Z,24.82
2019-04-16T03:33:59.350Z,24.90
2019-04-16T03:40:15.102Z,26.42
2019-04-16T03:46:13.100Z,26.33
2019-04-16T03:52:16.033Z,27.77
2019-04-16T03:58:20.298Z,28.05
2019-04-16T04:04:28.993Z,28.42
2019-04-16T04:10:34.243Z,25.37
2019-04-16T04:16:36.559Z,29.80
2019-04-16T04:22:44.155Z,29.10
2019-04-16T04:28:51.229Z,28.45
2019-04-16T04:34:54.502Z,28.57
2019-04-16T04:40:59.831Z,26.77
2019-04-16T04:47:04.261Z,27.15
2019-04-16T04:53:08.766Z,25.05
2019-04-16T04:59:13.106Z,25.82
2019-04-16T05:05:45.305Z,26.73
2019-04-16T05:11:49.650Z,24.92
2019-04-16T05:17:53.962Z,27.05
2019-04-16T05:23:58.235Z,24.75
2019-04-16T05:30:02.635Z,24.37
2019-04-16T05:36:06.984Z,22.65
2019-04-16T05:42:11.305Z,22.75
2019-04-16T05:48:15.554Z,22.80
2019-04-16T05:54:44.341Z,23.45
2019-04-16T06:01:03.750Z,22.27
2019-04-16T06:07:08.107Z,22.62
2019-04-16T06:13:34.406Z,22.07
2019-04-16T06:19:56.283Z,21.57
2019-04-16T06:26:16.327Z,20.65
2019-04-16T06:32:32.986Z,22.52
2019-04-16T06:38:50.210Z,20.65
2019-04-16T06:44:56.335Z,20.00
2019-04-16T06:51:36.610Z,19.65
2019-04-16T06:58:18.448Z,20.70
2019-04-16T07:04:39.703Z,18.75
2019-04-16T07:10:54.533Z,20.05
2019-04-16T07:17:00.189Z,19.67
2019-04-16T07:23:04.834Z,20.82
2019-04-16T07:29:16.769Z,21.37
2019-04-16T07:35:38.841Z,17.95
2019-04-16T07:42:10.582Z,18.52
2019-04-16T07:48:23.675Z,19.80
2019-04-16T07:54:46.873Z,18.70
2019-04-16T08:00:51.467Z,19.27
2019-04-16T08:06:55.781Z,19.32
2019-04-16T08:13:13.892Z,20.20
2019-04-16T08:19:16.699Z,19.05
2019-04-16T08:25:27.206Z,19.25
2019-04-16T08:31:33.452Z,18.17
2019-04-16T08:37:48.268Z,19.80
2019-04-16T08:43:43.789Z,19.92
2019-04-16T08:49:53.608Z,19.27
2019-04-16T08:55:54.127Z,20.68
2019-04-16T09:01:58.525Z,20.35
2019-04-16T09:08:21.779Z,19.80
2019-04-16T09:14:25.766Z,20.85
2019-04-16T09:20:37.834Z,20.82
2019-04-16T09:26:46.633Z,20.30
2019-04-16T09:33:01.277Z,22.45
2019-04-16T09:39:36.851Z,21.12
2019-04-16T09:45:41.271Z,18.87
2019-04-16T09:51:45.625Z,21.87
2019-04-16T09:57:49.950Z,22.55
2019-04-16T10:03:54.654Z,23.00
2019-04-16T10:09:58.863Z,22.60
2019-04-16T10:16:03.152Z,23.50
2019-04-16T10:22:07.735Z,21.87
2019-04-16T10:28:15.850Z,23.42
2019-04-16T10:34:20.529Z,22.13
2019-04-16T10:40:53.084Z,21.02
2019-04-16T10:47:22.265Z,22.62
2019-04-16T10:54:04.117Z,23.60
2019-04-16T11:00:31.626Z,22.20
2019-04-16T11:06:39.639Z,21.68
2019-04-16T11:12:44.942Z,23.40
2019-04-16T11:18:49.425Z,23.52
2019-04-16T11:24:53.877Z,22.17
2019-04-16T11:31:00.208Z,23.50
2019-04-16T11:37:08.153Z,23.00
2019-04-16T11:43:10.593Z,23.42
2019-04-16T11:49:15.021Z,22.98
2019-04-16T11:55:19.521Z,23.00
2019-04-16T12:01:40.320Z,21.62
2019-04-16T12:08:03.640Z,24.12
2019-04-16T12:14:17.968Z,22.13
2019-04-16T12:20:24.154Z,21.50
2019-04-16T12:26:46.357Z,23.47
2019-04-16T12:32:58.259Z,23.40
2019-04-16T12:39:24.644Z,22.05
2019-04-16T12:45:48.246Z,23.15
2019-04-16T12:51:56.370Z,23.75
2019-04-16T12:58:25.503Z,23.52
2019-04-16T13:04:59.695Z,24.05
2019-04-16T13:11:22.052Z,22.80
2019-04-16T13:17:37.843Z,21.35
2019-04-16T13:24:01.103Z,24.25
2019-04-16T13:30:07.361Z,23.60
2019-04-16T13:36:11.719Z,22.73
2019-04-16T13:42:16.023Z,24.80
2019-04-16T13:48:28.862Z,24.25
2019-04-16T13:55:01.212Z,22.65
2019-04-16T14:01:15.213Z,24.63
2019-04-16T14:07:19.719Z,25.02
2019-04-16T14:13:24.080Z,25.05
2019-04-16T14:19:28.478Z,25.17
2019-04-16T14:25:32.814Z,26.17
2019-04-16T14:31:37.124Z,24.92
2019-04-16T14:37:41.859Z,23.85
2019-04-16T14:43:49.670Z,23.55
2019-04-16T14:49:54.144Z,24.77
2019-04-16T14:56:03.272Z,25.02
2019-04-16T15:02:29.103Z,25.97
2019-04-16T15:08:53.092Z,25.25
2019-04-16T15:15:03.758Z,24.60
2019-04-16T15:21:43.933Z,23.32
2019-04-16T15:28:13.657Z,23.38
2019-04-16T15:34:21.459Z,23.35
2019-04-16T15:40:30.558Z,21.97
2019-04-16T15:46:57.084Z,21.30
2019-04-16T15:53:08.429Z,21.15
2019-04-16T15:59:22.619Z,21.85
2019-04-16T16:05:33.015Z,19.87
2019-04-16T16:11:59.572Z,20.82
2019-04-16T16:18:03.899Z,21.10
2019-04-16T16:24:08.480Z,21.75
2019-04-16T16:30:15.027Z,22.00
2019-04-16T16:36:18.902Z,22.20
2019-04-16T16:42:26.701Z,22.50
2019-04-16T16:48:31.140Z,21.85
2019-04-16T16:54:35.593Z,22.22
2019-04-16T17:01:07.863Z,21.35
2019-04-16T17:07:12.431Z,21.80
2019-04-16T17:13:20.791Z,20.60
2019-04-16T17:19:22.605Z,22.48
2019-04-16T17:25:36.133Z,23.47
2019-04-16T17:31:35.810Z,24.25
2019-04-16T17:37:38.861Z,25.08
2019-04-16T17:44:07.954Z,26.02
2019-04-16T17:50:22.481Z,25.82
2019-04-16T17:56:44.365Z,25.32
2019-04-16T18:03:04.070Z,22.65
2019-04-16T18:09:26.456Z,23.62
2019-04-16T18:15:49.897Z,25.35
2019-04-16T18:22:18.997Z,26.77
2019-04-16T18:28:28.498Z,28.57
2019-04-16T18:34:57.605Z,29.02
2019-04-16T18:41:32.929Z,60.00
2019-04-16T18:48:01.551Z,33.58
2019-04-16T18:54:49.412Z,29.12
2019-04-16T19:00:57.568Z,30.30
2019-04-16T19:07:01.977Z,29.75
2019-04-16T19:13:11.337Z,30.37
2019-04-16T19:19:12.935Z,29.75
2019-04-16T19:25:17.234Z,29.77
2019-04-16T19:31:23.074Z,30.77
2019-04-16T19:37:29.716Z,31.85
2019-04-16T19:43:35.282Z,30.97
2019-04-16T19:49:39.731Z,29.87
2019-04-16T19:55:45.963Z,29.35
2019-04-16T20:01:50.505Z,30.92
2019-04-16T20:07:54.865Z,33.73
2019-04-16T20:14:02.730Z,31.60
2019-04-16T20:20:05.533Z,32.60
2019-04-16T20:26:09.909Z,32.95
2019-04-16T20:32:14.203Z,35.50
2019-04-16T20:38:18.512Z,36.95
2019-04-16T20:44:22.897Z,36.30
2019-04-16T20:50:27.363Z,37.00
2019-04-16T20:56:31.710Z,34.90
2019-04-16T21:02:35.957Z,34.67
2019-04-16T21:08:40.350Z,36.25
2019-04-16T21:14:44.674Z,35.85
2019-04-16T21:20:51.113Z,35.28
2019-04-16T21:26:55.341Z,37.10
2019-04-16T21:33:20.554Z,36.17
2019-04-16T21:39:32.307Z,35.88
2019-04-16T21:45:36.709Z,35.98
2019-04-16T21:52:00.035Z,34.67
2019-04-16T21:58:04.479Z,36.30
2019-04-16T22:04:14.441Z,37.05
2019-04-16T22:10:17.879Z,37.50
2019-04-16T22:16:22.186Z,37.25
2019-04-16T22:22:27.732Z,37.50
2019-04-16T22:28:32.377Z,37.30
2019-04-16T22:34:36.685Z,36.20
2019-04-16T22:41:00.205Z,36.38
2019-04-16T22:47:09.598Z,37.63
2019-04-16T22:53:16.959Z,36.60
2019-04-16T22:59:19.995Z,39.30
2019-04-16T23:05:24.501Z,38.48
2019-04-16T23:11:29.160Z,39.98
2019-04-16T23:17:33.463Z,41.68
2019-04-16T23:23:37.795Z,40.92
2019-04-16T23:29:47.307Z,41.48
2019-04-16T23:35:48.210Z,43.13
2019-04-16T23:41:52.525Z,42.00
2019-04-16T23:48:15.832Z,42.03
2019-04-16T23:54:24.949Z,44.27
